DLH22MT EDDH-EDDF
Flight info
| Callsign | DLH22MT |
|---|---|
| Flight time | N/A |
| Altitude | 30000 |
| Route | AMLUH2G AMLUH M852 DENIX DCT RIMET/N0453F310 T157 KOKEB/N0395F230 T157 KERAX KERAX5A |
| Aircraft | A21N/M-SDE2E3FGHIRWXY/LB1 |
Departure
| Time | 2026-04-24 16:55 |
|---|---|
| Airport | Hamburg Helmut Schmidt Airport (EDDH) |
Arrival
| Time | N/A |
|---|---|
| Airport | Frankfurt Main Airport (EDDF) |
| Time | Latitude | Longitude | Altitude | Speed | Heading |
|---|---|---|---|---|---|
| 2026-04-24 16:17 | 53.63289 | 9.99980 | 50 ft | 0 kts | 140° |
| 2026-04-24 16:17 | 53.63291 | 9.99977 | 49 ft | 0 kts | 140° |
| 2026-04-24 16:47 | 53.63305 | 9.99957 | 48 ft | 4 kts | 140° |
| 2026-04-24 16:47 | 53.63323 | 9.99933 | 49 ft | 4 kts | 138° |
| 2026-04-24 16:47 | 53.63336 | 9.99900 | 45 ft | 4 kts | 86° |
| 2026-04-24 16:48 | 53.63327 | 9.99860 | 48 ft | 4 kts | 52° |
| 2026-04-24 16:48 | 53.63323 | 9.99852 | 49 ft | 1 kts | 50° |
| 2026-04-24 16:51 | 53.63331 | 9.99868 | 48 ft | 5 kts | 50° |
| 2026-04-24 16:51 | 53.63368 | 9.99941 | 49 ft | 13 kts | 50° |
| 2026-04-24 16:51 | 53.63428 | 10.00099 | 51 ft | 16 kts | 83° |
| 2026-04-24 16:51 | 53.63403 | 10.00155 | 51 ft | 6 kts | 171° |
| 2026-04-24 16:52 | 53.63336 | 10.00165 | 51 ft | 14 kts | 175° |
| 2026-04-24 16:52 | 53.63212 | 10.00179 | 51 ft | 22 kts | 176° |
| 2026-04-24 16:52 | 53.63073 | 10.00180 | 51 ft | 15 kts | 200° |
| 2026-04-24 16:52 | 53.62988 | 10.00095 | 50 ft | 14 kts | 216° |
| 2026-04-24 16:53 | 53.62953 | 10.00051 | 48 ft | 3 kts | 217° |
| 2026-04-24 16:53 | 53.62924 | 10.00004 | 51 ft | 10 kts | 233° |
| 2026-04-24 16:53 | 53.62875 | 9.99842 | 47 ft | 21 kts | 243° |
| 2026-04-24 16:53 | 53.62889 | 9.99715 | 48 ft | 8 kts | 338° |
| 2026-04-24 16:54 | 53.63067 | 9.99572 | 49 ft | 56 kts | 332° |
| 2026-04-24 16:54 | 53.63610 | 9.99103 | 50 ft | 121 kts | 332° |
| 2026-04-24 16:54 | 53.64524 | 9.98324 | 141 ft | 163 kts | 328° |
| 2026-04-24 16:54 | 53.65534 | 9.97414 | 647 ft | 166 kts | 328° |
| 2026-04-24 16:55 | 53.66531 | 9.96570 | 1520 ft | 155 kts | 330° |
| 2026-04-24 16:55 | 53.67528 | 9.95727 | 2087 ft | 171 kts | 330° |
| 2026-04-24 16:55 | 53.68663 | 9.94780 | 2447 ft | 196 kts | 335° |
| 2026-04-24 16:55 | 53.70057 | 9.94313 | 3089 ft | 213 kts | 359° |
| 2026-04-24 16:56 | 53.71534 | 9.94726 | 4048 ft | 218 kts | 14° |
| 2026-04-24 16:56 | 53.72846 | 9.96056 | 5043 ft | 227 kts | 41° |
| 2026-04-24 16:56 | 53.73656 | 9.98370 | 5968 ft | 239 kts | 64° |
| 2026-04-24 16:56 | 53.74074 | 10.01197 | 6610 ft | 262 kts | 78° |
| 2026-04-24 16:57 | 53.73881 | 10.04391 | 7168 ft | 288 kts | 108° |
| 2026-04-24 16:57 | 53.72678 | 10.07179 | 7900 ft | 304 kts | 141° |
| 2026-04-24 16:57 | 53.70754 | 10.08708 | 8727 ft | 309 kts | 168° |
| 2026-04-24 16:57 | 53.68614 | 10.09168 | 9599 ft | 311 kts | 181° |
| 2026-04-24 16:58 | 53.66437 | 10.09114 | 10411 ft | 315 kts | 186° |
| 2026-04-24 16:58 | 53.64182 | 10.08896 | 10799 ft | 335 kts | 186° |
| 2026-04-24 16:58 | 53.61798 | 10.08697 | 11097 ft | 358 kts | 185° |
| 2026-04-24 16:58 | 53.59238 | 10.08604 | 11417 ft | 378 kts | 183° |
| 2026-04-24 16:59 | 53.56551 | 10.08636 | 11974 ft | 389 kts | 181° |
| 2026-04-24 16:59 | 53.53830 | 10.08762 | 12796 ft | 392 kts | 180° |
| 2026-04-24 16:59 | 53.48334 | 10.09131 | 14335 ft | 398 kts | 180° |
| 2026-04-24 17:00 | 53.45550 | 10.09329 | 15019 ft | 402 kts | 180° |
| 2026-04-24 17:00 | 53.39941 | 10.09709 | 16340 ft | 408 kts | 180° |
| 2026-04-24 17:00 | 53.37085 | 10.09891 | 17006 ft | 411 kts | 180° |
| 2026-04-24 17:01 | 53.31310 | 10.10249 | 18315 ft | 418 kts | 180° |
| 2026-04-24 17:01 | 53.28441 | 10.10425 | 18889 ft | 420 kts | 181° |
| 2026-04-24 17:02 | 53.23554 | 10.10725 | 19775 ft | 425 kts | 181° |
| 2026-04-24 17:02 | 53.19582 | 10.10967 | 20478 ft | 428 kts | 181° |
| 2026-04-24 17:02 | 53.16582 | 10.11151 | 20994 ft | 431 kts | 181° |
| 2026-04-24 17:02 | 53.13605 | 10.11333 | 21486 ft | 434 kts | 181° |
| 2026-04-24 17:03 | 53.07525 | 10.11706 | 22494 ft | 439 kts | 181° |
| 2026-04-24 17:03 | 53.04460 | 10.11893 | 22991 ft | 442 kts | 181° |
| 2026-04-24 17:03 | 53.01376 | 10.12081 | 23421 ft | 444 kts | 181° |
| 2026-04-24 17:04 | 52.98285 | 10.12271 | 24022 ft | 442 kts | 182° |
| 2026-04-24 17:04 | 52.92145 | 10.12648 | 24984 ft | 444 kts | 182° |
| 2026-04-24 17:04 | 52.89025 | 10.12833 | 25203 ft | 451 kts | 182° |
| 2026-04-24 17:05 | 52.85910 | 10.13017 | 25528 ft | 455 kts | 182° |
| 2026-04-24 17:05 | 52.82730 | 10.13207 | 25838 ft | 459 kts | 182° |
| 2026-04-24 17:05 | 52.76307 | 10.13595 | 26592 ft | 463 kts | 182° |
| 2026-04-24 17:06 | 52.73083 | 10.13790 | 26967 ft | 464 kts | 182° |
| 2026-04-24 17:06 | 52.67704 | 10.14116 | 27614 ft | 465 kts | 182° |
| 2026-04-24 17:06 | 52.64474 | 10.14313 | 28144 ft | 462 kts | 182° |
| 2026-04-24 17:07 | 52.61268 | 10.14508 | 28649 ft | 460 kts | 182° |
| 2026-04-24 17:07 | 52.57041 | 10.14764 | 29258 ft | 457 kts | 183° |
| 2026-04-24 17:07 | 52.51730 | 10.15082 | 30041 ft | 454 kts | 183° |
| 2026-04-24 17:08 | 52.45493 | 10.15450 | 30155 ft | 454 kts | 183° |
| 2026-04-24 17:08 | 52.39172 | 10.15823 | 30151 ft | 454 kts | 183° |
| 2026-04-24 17:09 | 52.26529 | 10.16568 | 30146 ft | 454 kts | 183° |
| 2026-04-24 17:10 | 52.13932 | 10.17308 | 30151 ft | 454 kts | 183° |
| 2026-04-24 17:12 | 51.88697 | 10.18777 | 30143 ft | 454 kts | 183° |